sensor_id;sensor_type;location;lat;lon;timestamp;temperature;humidity
15143;DHT22;7672;50.834;6.286;2022-07-29T00:01:03;22.10;99.90
15143;DHT22;7672;50.834;6.286;2022-07-29T00:03:30;21.60;99.90
15143;DHT22;7672;50.834;6.286;2022-07-29T00:05:57;21.60;99.90
15143;DHT22;7672;50.834;6.286;2022-07-29T00:08:26;21.50;99.90
15143;DHT22;7672;50.834;6.286;2022-07-29T00:10:53;21.50;99.90
15143;DHT22;7672;50.834;6.286;2022-07-29T00:13:20;21.50;99.90
15143;DHT22;7672;50.834;6.286;2022-07-29T00:15:59;21.50;99.90
15143;DHT22;7672;50.834;6.286;2022-07-29T00:18:30;21.50;99.90
15143;DHT22;7672;50.834;6.286;2022-07-29T00:20:57;21.40;99.90
15143;DHT22;7672;50.834;6.286;2022-07-29T00:23:24;21.50;99.90
15143;DHT22;7672;50.834;6.286;2022-07-29T00:25:51;21.90;99.90
15143;DHT22;7672;50.834;6.286;2022-07-29T00:28:18;21.80;99.90
15143;DHT22;7672;50.834;6.286;2022-07-29T00:30:45;21.70;99.90
15143;DHT22;7672;50.834;6.286;2022-07-29T00:33:12;21.80;99.90
15143;DHT22;7672;50.834;6.286;2022-07-29T00:35:38;21.30;99.90
15143;DHT22;7672;50.834;6.286;2022-07-29T00:38:15;21.50;99.90
15143;DHT22;7672;50.834;6.286;2022-07-29T00:40:43;21.80;99.90
15143;DHT22;7672;50.834;6.286;2022-07-29T00:43:12;21.40;99.90
15143;DHT22;7672;50.834;6.286;2022-07-29T00:45:41;20.80;99.90
15143;DHT22;7672;50.834;6.286;2022-07-29T00:48:08;21.30;99.90
15143;DHT22;7672;50.834;6.286;2022-07-29T00:50:36;20.90;99.90
15143;DHT22;7672;50.834;6.286;2022-07-29T00:53:06;21.20;99.90
15143;DHT22;7672;50.834;6.286;2022-07-29T00:55:33;21.20;99.90
15143;DHT22;7672;50.834;6.286;2022-07-29T00:58:01;21.40;99.90
15143;DHT22;7672;50.834;6.286;2022-07-29T01:00:28;21.60;99.90
15143;DHT22;7672;50.834;6.286;2022-07-29T01:02:56;21.40;99.90
15143;DHT22;7672;50.834;6.286;2022-07-29T01:05:25;21.60;99.90
15143;DHT22;7672;50.834;6.286;2022-07-29T01:08:14;21.60;99.90
15143;DHT22;7672;50.834;6.286;2022-07-29T01:10:42;21.10;99.90
15143;DHT22;7672;50.834;6.286;2022-07-29T01:13:11;21.60;99.90
15143;DHT22;7672;50.834;6.286;2022-07-29T01:15:44;21.10;99.90
15143;DHT22;7672;50.834;6.286;2022-07-29T01:18:22;21.60;99.90
15143;DHT22;7672;50.834;6.286;2022-07-29T01:26:47;21.10;99.90
15143;DHT22;7672;50.834;6.286;2022-07-29T01:30:07;21.10;99.90
15143;DHT22;7672;50.834;6.286;2022-07-29T01:32:33;21.10;99.90
15143;DHT22;7672;50.834;6.286;2022-07-29T01:35:06;21.60;99.90
15143;DHT22;7672;50.834;6.286;2022-07-29T01:37:38;21.10;99.90
15143;DHT22;7672;50.834;6.286;2022-07-29T01:40:13;21.00;99.90
15143;DHT22;7672;50.834;6.286;2022-07-29T01:42:49;21.20;99.90
15143;DHT22;7672;50.834;6.286;2022-07-29T01:45:45;21.50;99.90
15143;DHT22;7672;50.834;6.286;2022-07-29T01:48:27;21.00;99.90
15143;DHT22;7672;50.834;6.286;2022-07-29T01:51:03;20.70;99.90
15143;DHT22;7672;50.834;6.286;2022-07-29T01:53:38;21.30;99.90
15143;DHT22;7672;50.834;6.286;2022-07-29T01:56:14;21.00;99.90
15143;DHT22;7672;50.834;6.286;2022-07-29T01:58:46;21.00;99.90
15143;DHT22;7672;50.834;6.286;2022-07-29T02:01:14;21.00;99.90
15143;DHT22;7672;50.834;6.286;2022-07-29T02:03:46;21.40;99.90
15143;DHT22;7672;50.834;6.286;2022-07-29T02:06:18;20.90;99.90
15143;DHT22;7672;50.834;6.286;2022-07-29T02:08:47;20.90;99.90
15143;DHT22;7672;50.834;6.286;2022-07-29T02:11:16;21.20;99.90
15143;DHT22;7672;50.834;6.286;2022-07-29T02:13:44;20.80;99.90
15143;DHT22;7672;50.834;6.286;2022-07-29T02:16:12;21.00;99.90
15143;DHT22;7672;50.834;6.286;2022-07-29T02:18:41;21.20;99.90
15143;DHT22;7672;50.834;6.286;2022-07-29T02:21:09;20.90;99.90
15143;DHT22;7672;50.834;6.286;2022-07-29T02:23:42;21.40;99.90
15143;DHT22;7672;50.834;6.286;2022-07-29T02:26:19;20.90;99.90
15143;DHT22;7672;50.834;6.286;2022-07-29T02:28:49;20.90;99.90
15143;DHT22;7672;50.834;6.286;2022-07-29T02:31:18;20.80;99.90
15143;DHT22;7672;50.834;6.286;2022-07-29T02:33:48;21.10;99.90
15143;DHT22;7672;50.834;6.286;2022-07-29T02:36:16;21.30;99.90
15143;DHT22;7672;50.834;6.286;2022-07-29T02:38:43;20.80;99.90
15143;DHT22;7672;50.834;6.286;2022-07-29T02:41:23;20.80;99.90
15143;DHT22;7672;50.834;6.286;2022-07-29T02:44:02;20.80;99.90
15143;DHT22;7672;50.834;6.286;2022-07-29T02:46:34;21.00;99.90
15143;DHT22;7672;50.834;6.286;2022-07-29T02:51:53;20.60;99.90
15143;DHT22;7672;50.834;6.286;2022-07-29T02:54:35;21.10;99.90
15143;DHT22;7672;50.834;6.286;2022-07-29T02:57:19;21.00;99.90
15143;DHT22;7672;50.834;6.286;2022-07-29T02:59:50;20.60;99.90
15143;DHT22;7672;50.834;6.286;2022-07-29T03:02:18;21.10;99.90
15143;DHT22;7672;50.834;6.286;2022-07-29T03:04:46;20.50;99.90
15143;DHT22;7672;50.834;6.286;2022-07-29T03:07:18;20.40;99.90
15143;DHT22;7672;50.834;6.286;2022-07-29T03:09:46;20.40;99.90
15143;DHT22;7672;50.834;6.286;2022-07-29T03:12:27;20.60;99.90
15143;DHT22;7672;50.834;6.286;2022-07-29T03:14:56;20.40;99.90
15143;DHT22;7672;50.834;6.286;2022-07-29T03:17:23;20.80;99.90
15143;DHT22;7672;50.834;6.286;2022-07-29T03:19:51;20.40;99.90
15143;DHT22;7672;50.834;6.286;2022-07-29T03:22:18;20.40;99.90
15143;DHT22;7672;50.834;6.286;2022-07-29T03:24:45;20.40;99.90
15143;DHT22;7672;50.834;6.286;2022-07-29T03:27:12;20.30;99.90
15143;DHT22;7672;50.834;6.286;2022-07-29T03:29:39;20.30;99.90
15143;DHT22;7672;50.834;6.286;2022-07-29T03:32:11;20.70;99.90
15143;DHT22;7672;50.834;6.286;2022-07-29T03:34:39;20.40;99.90
15143;DHT22;7672;50.834;6.286;2022-07-29T03:37:06;20.30;99.90
15143;DHT22;7672;50.834;6.286;2022-07-29T03:39:38;20.30;99.90
15143;DHT22;7672;50.834;6.286;2022-07-29T03:42:10;20.30;99.90
15143;DHT22;7672;50.834;6.286;2022-07-29T03:44:40;20.30;99.90
15143;DHT22;7672;50.834;6.286;2022-07-29T03:47:11;20.30;99.90
15143;DHT22;7672;50.834;6.286;2022-07-29T03:49:42;20.20;99.90
15143;DHT22;7672;50.834;6.286;2022-07-29T03:52:13;20.20;99.90
15143;DHT22;7672;50.834;6.286;2022-07-29T03:54:40;20.20;99.90
15143;DHT22;7672;50.834;6.286;2022-07-29T03:57:07;20.20;99.90
15143;DHT22;7672;50.834;6.286;2022-07-29T03:59:38;20.30;99.90
15143;DHT22;7672;50.834;6.286;2022-07-29T04:02:09;20.10;99.90
15143;DHT22;7672;50.834;6.286;2022-07-29T04:04:38;20.60;99.90
15143;DHT22;7672;50.834;6.286;2022-07-29T04:07:05;20.10;99.90
15143;DHT22;7672;50.834;6.286;2022-07-29T04:09:32;20.10;99.90
15143;DHT22;7672;50.834;6.286;2022-07-29T04:11:59;20.00;99.90
15143;DHT22;7672;50.834;6.286;2022-07-29T04:14:30;20.00;99.90
15143;DHT22;7672;50.834;6.286;2022-07-29T04:16:59;20.00;99.90
15143;DHT22;7672;50.834;6.286;2022-07-29T04:19:26;20.00;99.90
15143;DHT22;7672;50.834;6.286;2022-07-29T04:21:53;19.90;99.90
15143;DHT22;7672;50.834;6.286;2022-07-29T04:24:20;19.90;99.90
15143;DHT22;7672;50.834;6.286;2022-07-29T04:26:47;19.90;99.90
15143;DHT22;7672;50.834;6.286;2022-07-29T04:29:14;19.90;99.90
15143;DHT22;7672;50.834;6.286;2022-07-29T04:31:42;19.90;99.90
15143;DHT22;7672;50.834;6.286;2022-07-29T04:34:10;19.90;99.90
15143;DHT22;7672;50.834;6.286;2022-07-29T04:36:37;20.40;99.90
15143;DHT22;7672;50.834;6.286;2022-07-29T04:39:04;19.90;99.90
15143;DHT22;7672;50.834;6.286;2022-07-29T04:41:31;19.90;99.90
15143;DHT22;7672;50.834;6.286;2022-07-29T04:44:00;19.90;99.90
15143;DHT22;7672;50.834;6.286;2022-07-29T04:46:33;20.30;99.90
15143;DHT22;7672;50.834;6.286;2022-07-29T04:49:00;19.90;99.90
15143;DHT22;7672;50.834;6.286;2022-07-29T04:51:27;20.00;99.90
15143;DHT22;7672;50.834;6.286;2022-07-29T04:53:54;20.00;99.90
15143;DHT22;7672;50.834;6.286;2022-07-29T04:56:21;20.10;99.90
15143;DHT22;7672;50.834;6.286;2022-07-29T04:58:47;20.00;99.90
15143;DHT22;7672;50.834;6.286;2022-07-29T05:01:14;20.10;99.90
15143;DHT22;7672;50.834;6.286;2022-07-29T05:03:42;20.10;99.90
15143;DHT22;7672;50.834;6.286;2022-07-29T05:06:09;20.20;99.90
15143;DHT22;7672;50.834;6.286;2022-07-29T05:08:36;20.10;99.90
15143;DHT22;7672;50.834;6.286;2022-07-29T05:11:07;20.60;99.90
15143;DHT22;7672;50.834;6.286;2022-07-29T05:13:38;20.60;99.90
15143;DHT22;7672;50.834;6.286;2022-07-29T05:16:49;20.10;99.90
15143;DHT22;7672;50.834;6.286;2022-07-29T05:19:33;19.90;99.90
15143;DHT22;7672;50.834;6.286;2022-07-29T05:22:05;19.70;99.90
15143;DHT22;7672;50.834;6.286;2022-07-29T05:24:31;19.40;99.90
15143;DHT22;7672;50.834;6.286;2022-07-29T05:26:58;19.30;99.90
15143;DHT22;7672;50.834;6.286;2022-07-29T05:29:25;19.00;99.90
15143;DHT22;7672;50.834;6.286;2022-07-29T05:32:11;19.00;99.90
15143;DHT22;7672;50.834;6.286;2022-07-29T05:34:39;18.80;99.90
15143;DHT22;7672;50.834;6.286;2022-07-29T05:37:17;18.70;99.90
15143;DHT22;7672;50.834;6.286;2022-07-29T05:39:47;18.70;99.90
15143;DHT22;7672;50.834;6.286;2022-07-29T05:42:23;18.60;99.90
15143;DHT22;7672;50.834;6.286;2022-07-29T05:44:50;18.40;99.90
15143;DHT22;7672;50.834;6.286;2022-07-29T05:47:18;18.40;99.90
15143;DHT22;7672;50.834;6.286;2022-07-29T05:49:45;18.30;99.90
15143;DHT22;7672;50.834;6.286;2022-07-29T05:52:12;18.60;99.90
15143;DHT22;7672;50.834;6.286;2022-07-29T05:54:42;18.20;99.90
15143;DHT22;7672;50.834;6.286;2022-07-29T05:57:21;18.20;99.90
15143;DHT22;7672;50.834;6.286;2022-07-29T05:59:50;18.20;99.90
15143;DHT22;7672;50.834;6.286;2022-07-29T06:02:17;18.20;99.90
15143;DHT22;7672;50.834;6.286;2022-07-29T06:04:45;18.20;99.90
15143;DHT22;7672;50.834;6.286;2022-07-29T06:07:12;18.20;99.90
15143;DHT22;7672;50.834;6.286;2022-07-29T06:09:39;18.20;99.90
15143;DHT22;7672;50.834;6.286;2022-07-29T06:12:06;18.30;99.90
15143;DHT22;7672;50.834;6.286;2022-07-29T06:14:32;18.30;99.90
15143;DHT22;7672;50.834;6.286;2022-07-29T06:16:59;18.30;99.90
15143;DHT22;7672;50.834;6.286;2022-07-29T06:19:26;18.30;99.90
15143;DHT22;7672;50.834;6.286;2022-07-29T06:21:53;18.40;99.90
15143;DHT22;7672;50.834;6.286;2022-07-29T06:24:20;18.50;99.90
15143;DHT22;7672;50.834;6.286;2022-07-29T06:26:46;18.50;99.90
15143;DHT22;7672;50.834;6.286;2022-07-29T06:29:13;18.60;99.90
15143;DHT22;7672;50.834;6.286;2022-07-29T06:31:40;18.50;99.90
15143;DHT22;7672;50.834;6.286;2022-07-29T06:34:07;18.50;99.90
15143;DHT22;7672;50.834;6.286;2022-07-29T06:36:35;18.50;99.90
15143;DHT22;7672;50.834;6.286;2022-07-29T06:39:08;18.50;99.90
15143;DHT22;7672;50.834;6.286;2022-07-29T06:41:37;18.50;99.90
15143;DHT22;7672;50.834;6.286;2022-07-29T06:44:04;18.50;99.90
15143;DHT22;7672;50.834;6.286;2022-07-29T06:46:31;18.50;99.90
15143;DHT22;7672;50.834;6.286;2022-07-29T06:48:59;18.50;99.90
15143;DHT22;7672;50.834;6.286;2022-07-29T06:51:28;18.80;99.90
15143;DHT22;7672;50.834;6.286;2022-07-29T06:53:54;18.60;99.90
15143;DHT22;7672;50.834;6.286;2022-07-29T06:56:33;18.60;99.90
15143;DHT22;7672;50.834;6.286;2022-07-29T06:59:09;18.90;99.90
15143;DHT22;7672;50.834;6.286;2022-07-29T07:01:38;18.70;99.90
15143;DHT22;7672;50.834;6.286;2022-07-29T07:04:06;18.80;99.90
15143;DHT22;7672;50.834;6.286;2022-07-29T07:06:35;18.90;99.90
15143;DHT22;7672;50.834;6.286;2022-07-29T07:09:02;18.90;99.90
15143;DHT22;7672;50.834;6.286;2022-07-29T07:11:30;19.00;99.90
15143;DHT22;7672;50.834;6.286;2022-07-29T07:13:57;19.20;99.90
15143;DHT22;7672;50.834;6.286;2022-07-29T07:16:30;19.20;99.90
15143;DHT22;7672;50.834;6.286;2022-07-29T07:18:57;19.30;99.90
15143;DHT22;7672;50.834;6.286;2022-07-29T07:21:24;19.30;99.90
15143;DHT22;7672;50.834;6.286;2022-07-29T07:23:51;19.30;99.90
15143;DHT22;7672;50.834;6.286;2022-07-29T07:26:18;19.30;99.90
15143;DHT22;7672;50.834;6.286;2022-07-29T07:28:45;19.40;99.90
15143;DHT22;7672;50.834;6.286;2022-07-29T07:31:11;19.50;99.90
15143;DHT22;7672;50.834;6.286;2022-07-29T07:33:38;19.60;99.90
15143;DHT22;7672;50.834;6.286;2022-07-29T07:36:05;19.80;99.90
15143;DHT22;7672;50.834;6.286;2022-07-29T07:38:32;19.90;99.90
15143;DHT22;7672;50.834;6.286;2022-07-29T07:40:59;20.10;99.90
15143;DHT22;7672;50.834;6.286;2022-07-29T07:43:26;20.30;99.90
15143;DHT22;7672;50.834;6.286;2022-07-29T07:45:53;20.50;99.90
15143;DHT22;7672;50.834;6.286;2022-07-29T07:48:20;20.80;99.90
15143;DHT22;7672;50.834;6.286;2022-07-29T07:50:47;21.00;99.90
15143;DHT22;7672;50.834;6.286;2022-07-29T07:53:16;21.30;99.90
15143;DHT22;7672;50.834;6.286;2022-07-29T07:55:43;21.60;99.90
15143;DHT22;7672;50.834;6.286;2022-07-29T07:58:31;21.90;99.90
15143;DHT22;7672;50.834;6.286;2022-07-29T08:00:58;22.40;99.90
15143;DHT22;7672;50.834;6.286;2022-07-29T08:03:24;22.80;99.90
15143;DHT22;7672;50.834;6.286;2022-07-29T08:05:51;23.30;99.90
15143;DHT22;7672;50.834;6.286;2022-07-29T08:08:18;23.70;99.90
15143;DHT22;7672;50.834;6.286;2022-07-29T08:10:53;24.20;99.90
15143;DHT22;7672;50.834;6.286;2022-07-29T08:13:25;24.60;99.90
15143;DHT22;7672;50.834;6.286;2022-07-29T08:15:56;25.00;99.90
15143;DHT22;7672;50.834;6.286;2022-07-29T08:18:29;25.40;99.90
15143;DHT22;7672;50.834;6.286;2022-07-29T08:20:57;25.60;99.90
15143;DHT22;7672;50.834;6.286;2022-07-29T08:23:24;25.80;99.90
15143;DHT22;7672;50.834;6.286;2022-07-29T08:26:13;26.00;99.90
15143;DHT22;7672;50.834;6.286;2022-07-29T08:28:45;26.20;99.90
15143;DHT22;7672;50.834;6.286;2022-07-29T08:31:15;26.30;99.90
15143;DHT22;7672;50.834;6.286;2022-07-29T08:33:43;26.40;99.90
15143;DHT22;7672;50.834;6.286;2022-07-29T08:36:10;26.40;99.90
15143;DHT22;7672;50.834;6.286;2022-07-29T08:38:39;26.40;99.90
15143;DHT22;7672;50.834;6.286;2022-07-29T08:41:07;26.50;99.90
15143;DHT22;7672;50.834;6.286;2022-07-29T08:43:34;26.40;99.90
15143;DHT22;7672;50.834;6.286;2022-07-29T08:46:03;26.50;99.90
15143;DHT22;7672;50.834;6.286;2022-07-29T08:48:31;26.40;99.90
15143;DHT22;7672;50.834;6.286;2022-07-29T08:50:59;26.30;99.90
15143;DHT22;7672;50.834;6.286;2022-07-29T08:53:28;26.20;99.90
15143;DHT22;7672;50.834;6.286;2022-07-29T08:55:55;26.00;99.90
15143;DHT22;7672;50.834;6.286;2022-07-29T08:58:24;26.00;99.90
15143;DHT22;7672;50.834;6.286;2022-07-29T09:00:54;25.90;99.90
15143;DHT22;7672;50.834;6.286;2022-07-29T09:03:25;25.80;99.90
15143;DHT22;7672;50.834;6.286;2022-07-29T09:05:57;25.80;99.90
15143;DHT22;7672;50.834;6.286;2022-07-29T09:08:25;25.80;99.90
15143;DHT22;7672;50.834;6.286;2022-07-29T09:10:52;25.80;99.90
15143;DHT22;7672;50.834;6.286;2022-07-29T09:13:20;25.80;99.90
15143;DHT22;7672;50.834;6.286;2022-07-29T09:15:46;25.80;99.90
15143;DHT22;7672;50.834;6.286;2022-07-29T09:21:13;26.00;99.90
15143;DHT22;7672;50.834;6.286;2022-07-29T09:24:05;26.00;99.90
15143;DHT22;7672;50.834;6.286;2022-07-29T09:26:35;26.10;99.90
15143;DHT22;7672;50.834;6.286;2022-07-29T09:29:13;26.20;99.90
15143;DHT22;7672;50.834;6.286;2022-07-29T09:31:46;26.40;99.90
15143;DHT22;7672;50.834;6.286;2022-07-29T09:34:17;26.70;99.90
15143;DHT22;7672;50.834;6.286;2022-07-29T09:36:51;27.00;99.90
15143;DHT22;7672;50.834;6.286;2022-07-29T09:42:12;27.80;99.90
15143;DHT22;7672;50.834;6.286;2022-07-29T09:44:49;28.30;99.90
15143;DHT22;7672;50.834;6.286;2022-07-29T09:47:18;28.70;99.90
15143;DHT22;7672;50.834;6.286;2022-07-29T09:49:58;29.00;99.90
15143;DHT22;7672;50.834;6.286;2022-07-29T09:52:27;29.30;99.90
15143;DHT22;7672;50.834;6.286;2022-07-29T09:55:05;29.50;99.90
15143;DHT22;7672;50.834;6.286;2022-07-29T10:01:28;30.10;99.90
15143;DHT22;7672;50.834;6.286;2022-07-29T10:03:55;30.70;99.90
15143;DHT22;7672;50.834;6.286;2022-07-29T10:06:25;31.10;99.90
15143;DHT22;7672;50.834;6.286;2022-07-29T10:08:54;31.40;99.90
15143;DHT22;7672;50.834;6.286;2022-07-29T10:11:21;31.80;99.90
15143;DHT22;7672;50.834;6.286;2022-07-29T10:13:48;32.20;99.90
15143;DHT22;7672;50.834;6.286;2022-07-29T10:16:16;32.50;99.50
15143;DHT22;7672;50.834;6.286;2022-07-29T10:18:50;32.90;97.60
15143;DHT22;7672;50.834;6.286;2022-07-29T10:21:18;33.00;96.80
15143;DHT22;7672;50.834;6.286;2022-07-29T10:24:01;33.20;98.00
15143;DHT22;7672;50.834;6.286;2022-07-29T10:26:30;33.40;96.70
15143;DHT22;7672;50.834;6.286;2022-07-29T10:28:57;33.50;95.80
15143;DHT22;7672;50.834;6.286;2022-07-29T10:31:29;33.70;96.60
15143;DHT22;7672;50.834;6.286;2022-07-29T10:34:21;33.90;96.00
15143;DHT22;7672;50.834;6.286;2022-07-29T10:37:27;34.10;94.50
15143;DHT22;7672;50.834;6.286;2022-07-29T10:43:27;34.50;91.80
15143;DHT22;7672;50.834;6.286;2022-07-29T10:45:59;34.60;91.40
15143;DHT22;7672;50.834;6.286;2022-07-29T10:48:27;34.70;91.90
15143;DHT22;7672;50.834;6.286;2022-07-29T10:50:59;34.70;89.40
15143;DHT22;7672;50.834;6.286;2022-07-29T10:53:51;34.60;89.80
15143;DHT22;7672;50.834;6.286;2022-07-29T10:56:31;34.60;90.60
15143;DHT22;7672;50.834;6.286;2022-07-29T11:01:50;34.50;87.00
15143;DHT22;7672;50.834;6.286;2022-07-29T11:07:11;34.40;85.80
15143;DHT22;7672;50.834;6.286;2022-07-29T11:09:40;34.40;86.10
15143;DHT22;7672;50.834;6.286;2022-07-29T11:15:23;34.20;83.70
15143;DHT22;7672;50.834;6.286;2022-07-29T11:20:50;34.00;85.70
15143;DHT22;7672;50.834;6.286;2022-07-29T11:28:58;33.70;85.70
15143;DHT22;7672;50.834;6.286;2022-07-29T11:45:07;33.80;86.70
15143;DHT22;7672;50.834;6.286;2022-07-29T11:48:07;33.80;83.40
15143;DHT22;7672;50.834;6.286;2022-07-29T11:50:58;33.80;83.70
15143;DHT22;7672;50.834;6.286;2022-07-29T11:53:26;33.80;83.20
15143;DHT22;7672;50.834;6.286;2022-07-29T11:55:59;33.80;82.60
15143;DHT22;7672;50.834;6.286;2022-07-29T11:58:28;33.70;81.30
15143;DHT22;7672;50.834;6.286;2022-07-29T12:00:57;33.60;81.80
15143;DHT22;7672;50.834;6.286;2022-07-29T12:03:30;33.40;82.50
15143;DHT22;7672;50.834;6.286;2022-07-29T12:06:11;33.30;82.90
15143;DHT22;7672;50.834;6.286;2022-07-29T12:08:45;33.10;83.40
15143;DHT22;7672;50.834;6.286;2022-07-29T12:11:19;33.10;83.10
15143;DHT22;7672;50.834;6.286;2022-07-29T12:13:50;33.10;84.70
15143;DHT22;7672;50.834;6.286;2022-07-29T12:16:19;33.10;85.50
15143;DHT22;7672;50.834;6.286;2022-07-29T12:19:02;33.10;85.50
15143;DHT22;7672;50.834;6.286;2022-07-29T12:21:46;33.10;82.60
15143;DHT22;7672;50.834;6.286;2022-07-29T12:24:22;33.10;82.80
15143;DHT22;7672;50.834;6.286;2022-07-29T12:26:58;33.10;83.90
15143;DHT22;7672;50.834;6.286;2022-07-29T12:29:27;33.00;81.90
15143;DHT22;7672;50.834;6.286;2022-07-29T12:32:01;33.00;82.80
15143;DHT22;7672;50.834;6.286;2022-07-29T12:34:33;33.00;84.00
15143;DHT22;7672;50.834;6.286;2022-07-29T12:37:00;33.00;83.20
15143;DHT22;7672;50.834;6.286;2022-07-29T12:39:28;33.00;83.70
15143;DHT22;7672;50.834;6.286;2022-07-29T12:41:55;33.00;82.90
15143;DHT22;7672;50.834;6.286;2022-07-29T12:44:47;33.00;83.90
15143;DHT22;7672;50.834;6.286;2022-07-29T12:47:17;32.70;86.60
15143;DHT22;7672;50.834;6.286;2022-07-29T12:50:19;32.90;85.60
15143;DHT22;7672;50.834;6.286;2022-07-29T12:52:51;32.90;87.30
15143;DHT22;7672;50.834;6.286;2022-07-29T12:55:39;33.00;88.50
15143;DHT22;7672;50.834;6.286;2022-07-29T12:58:08;33.10;86.90
15143;DHT22;7672;50.834;6.286;2022-07-29T13:00:35;33.10;86.00
15143;DHT22;7672;50.834;6.286;2022-07-29T13:03:02;33.10;83.10
15143;DHT22;7672;50.834;6.286;2022-07-29T13:05:43;32.90;84.80
15143;DHT22;7672;50.834;6.286;2022-07-29T13:08:16;32.80;85.40
15143;DHT22;7672;50.834;6.286;2022-07-29T13:10:48;32.70;85.90
15143;DHT22;7672;50.834;6.286;2022-07-29T13:13:15;32.60;86.20
15143;DHT22;7672;50.834;6.286;2022-07-29T13:15:43;32.50;86.70
15143;DHT22;7672;50.834;6.286;2022-07-29T13:18:33;32.50;85.00
15143;DHT22;7672;50.834;6.286;2022-07-29T13:21:14;32.50;86.60
15143;DHT22;7672;50.834;6.286;2022-07-29T13:23:44;32.50;86.50
15143;DHT22;7672;50.834;6.286;2022-07-29T13:26:11;32.60;85.30
15143;DHT22;7672;50.834;6.286;2022-07-29T13:28:38;32.60;85.10
15143;DHT22;7672;50.834;6.286;2022-07-29T13:31:05;32.60;85.70
15143;DHT22;7672;50.834;6.286;2022-07-29T13:33:32;32.60;84.00
15143;DHT22;7672;50.834;6.286;2022-07-29T13:35:59;32.50;83.60
15143;DHT22;7672;50.834;6.286;2022-07-29T13:38:28;32.40;84.10
15143;DHT22;7672;50.834;6.286;2022-07-29T13:40:57;32.30;84.60
15143;DHT22;7672;50.834;6.286;2022-07-29T13:43:24;32.20;84.60
15143;DHT22;7672;50.834;6.286;2022-07-29T13:45:51;32.10;85.30
15143;DHT22;7672;50.834;6.286;2022-07-29T13:48:18;31.90;83.50
15143;DHT22;7672;50.834;6.286;2022-07-29T13:50:45;31.80;84.00
15143;DHT22;7672;50.834;6.286;2022-07-29T13:53:13;31.70;84.80
15143;DHT22;7672;50.834;6.286;2022-07-29T13:55:43;31.60;85.80
15143;DHT22;7672;50.834;6.286;2022-07-29T13:58:10;31.50;85.80
15143;DHT22;7672;50.834;6.286;2022-07-29T14:00:37;31.50;85.10
15143;DHT22;7672;50.834;6.286;2022-07-29T14:03:04;31.50;85.30
15143;DHT22;7672;50.834;6.286;2022-07-29T14:05:31;31.40;85.30
15143;DHT22;7672;50.834;6.286;2022-07-29T14:07:57;31.30;86.80
15143;DHT22;7672;50.834;6.286;2022-07-29T14:10:24;31.30;85.40
15143;DHT22;7672;50.834;6.286;2022-07-29T14:12:52;31.20;85.10
15143;DHT22;7672;50.834;6.286;2022-07-29T14:15:19;31.20;86.50
15143;DHT22;7672;50.834;6.286;2022-07-29T14:17:46;31.10;85.00
15143;DHT22;7672;50.834;6.286;2022-07-29T14:20:13;31.10;85.10
15143;DHT22;7672;50.834;6.286;2022-07-29T14:22:42;31.00;85.30
15143;DHT22;7672;50.834;6.286;2022-07-29T14:25:11;30.90;86.10
15143;DHT22;7672;50.834;6.286;2022-07-29T14:27:41;30.80;85.60
15143;DHT22;7672;50.834;6.286;2022-07-29T14:30:09;30.60;84.30
15143;DHT22;7672;50.834;6.286;2022-07-29T14:32:36;30.80;86.20
15143;DHT22;7672;50.834;6.286;2022-07-29T14:35:04;30.80;86.20
15143;DHT22;7672;50.834;6.286;2022-07-29T14:37:31;30.90;86.50
15143;DHT22;7672;50.834;6.286;2022-07-29T14:40:06;30.90;85.40
15143;DHT22;7672;50.834;6.286;2022-07-29T14:42:35;30.90;84.20
15143;DHT22;7672;50.834;6.286;2022-07-29T14:45:03;30.80;84.60
15143;DHT22;7672;50.834;6.286;2022-07-29T14:47:32;30.90;83.10
15143;DHT22;7672;50.834;6.286;2022-07-29T14:49:59;31.00;82.70
15143;DHT22;7672;50.834;6.286;2022-07-29T14:52:26;30.90;84.00
15143;DHT22;7672;50.834;6.286;2022-07-29T14:54:53;30.90;83.10
15143;DHT22;7672;50.834;6.286;2022-07-29T14:57:19;30.90;84.10
15143;DHT22;7672;50.834;6.286;2022-07-29T14:59:46;30.90;82.70
15143;DHT22;7672;50.834;6.286;2022-07-29T15:02:13;30.90;83.10
15143;DHT22;7672;50.834;6.286;2022-07-29T15:04:40;30.90;83.70
15143;DHT22;7672;50.834;6.286;2022-07-29T15:07:07;30.80;83.30
15143;DHT22;7672;50.834;6.286;2022-07-29T15:09:34;30.90;83.80
15143;DHT22;7672;50.834;6.286;2022-07-29T15:12:06;30.90;83.30
15143;DHT22;7672;50.834;6.286;2022-07-29T15:14:34;30.90;84.80
15143;DHT22;7672;50.834;6.286;2022-07-29T15:17:01;30.90;84.20
15143;DHT22;7672;50.834;6.286;2022-07-29T15:19:30;31.00;83.80
15143;DHT22;7672;50.834;6.286;2022-07-29T15:21:56;30.80;82.70
15143;DHT22;7672;50.834;6.286;2022-07-29T15:24:25;30.80;84.00
15143;DHT22;7672;50.834;6.286;2022-07-29T15:26:53;30.70;84.00
15143;DHT22;7672;50.834;6.286;2022-07-29T15:29:20;30.60;85.00
15143;DHT22;7672;50.834;6.286;2022-07-29T15:31:47;30.60;83.50
15143;DHT22;7672;50.834;6.286;2022-07-29T15:34:15;30.50;84.10
15143;DHT22;7672;50.834;6.286;2022-07-29T15:36:42;30.60;83.90
15143;DHT22;7672;50.834;6.286;2022-07-29T15:39:19;30.50;83.70
15143;DHT22;7672;50.834;6.286;2022-07-29T15:41:47;30.40;83.80
15143;DHT22;7672;50.834;6.286;2022-07-29T15:44:14;30.40;84.10
15143;DHT22;7672;50.834;6.286;2022-07-29T15:46:41;30.30;86.10
15143;DHT22;7672;50.834;6.286;2022-07-29T15:49:37;30.20;85.60
15143;DHT22;7672;50.834;6.286;2022-07-29T15:52:18;30.20;86.80
15143;DHT22;7672;50.834;6.286;2022-07-29T15:54:55;30.10;86.20
15143;DHT22;7672;50.834;6.286;2022-07-29T15:57:23;30.00;86.50
15143;DHT22;7672;50.834;6.286;2022-07-29T15:59:51;29.90;87.90
15143;DHT22;7672;50.834;6.286;2022-07-29T16:02:18;29.80;87.60
15143;DHT22;7672;50.834;6.286;2022-07-29T16:04:45;29.60;87.80
15143;DHT22;7672;50.834;6.286;2022-07-29T16:07:13;29.60;88.90
15143;DHT22;7672;50.834;6.286;2022-07-29T16:09:41;29.50;88.80
15143;DHT22;7672;50.834;6.286;2022-07-29T16:12:08;29.40;90.20
15143;DHT22;7672;50.834;6.286;2022-07-29T16:14:44;29.20;90.40
15143;DHT22;7672;50.834;6.286;2022-07-29T16:17:11;29.10;90.70
15143;DHT22;7672;50.834;6.286;2022-07-29T16:19:43;29.00;90.60
15143;DHT22;7672;50.834;6.286;2022-07-29T16:22:11;28.90;91.00
15143;DHT22;7672;50.834;6.286;2022-07-29T16:24:39;28.90;91.00
15143;DHT22;7672;50.834;6.286;2022-07-29T16:27:09;28.80;90.80
15143;DHT22;7672;50.834;6.286;2022-07-29T16:29:36;28.80;90.90
15143;DHT22;7672;50.834;6.286;2022-07-29T16:32:04;28.80;91.00
15143;DHT22;7672;50.834;6.286;2022-07-29T16:34:31;28.80;91.50
15143;DHT22;7672;50.834;6.286;2022-07-29T16:36:58;28.80;90.80
15143;DHT22;7672;50.834;6.286;2022-07-29T16:39:26;28.80;91.20
15143;DHT22;7672;50.834;6.286;2022-07-29T16:41:53;28.70;91.70
15143;DHT22;7672;50.834;6.286;2022-07-29T16:44:25;28.70;91.40
15143;DHT22;7672;50.834;6.286;2022-07-29T16:46:52;28.70;91.70
15143;DHT22;7672;50.834;6.286;2022-07-29T16:49:22;28.60;91.50
15143;DHT22;7672;50.834;6.286;2022-07-29T16:51:49;28.60;91.70
15143;DHT22;7672;50.834;6.286;2022-07-29T16:54:16;28.50;91.70
15143;DHT22;7672;50.834;6.286;2022-07-29T16:56:43;28.50;91.50
15143;DHT22;7672;50.834;6.286;2022-07-29T16:59:10;28.50;91.40